Time;durP1;ratioP1;P1;durP2;ratioP2;P2;SDS_P1;SDS_P2;PMS_P1;PMS_P2;Temp;Humidity;BMP_temperature;BMP_pressure;BME280_temperature;BME280_humidity;BME280_pressure;Samples;Min_cycle;Max_cycle;Signal;HPM_P1;HPM_P2
2023/12/03 00:01:09;;;;;;;22.33;9.32;;;1.20;88.20;;;;;;5049674;28;20514;-81
2023/12/03 00:03:36;;;;;;;21.80;8.35;;;1.20;88.20;;;;;;5066281;28;20041;-81
2023/12/03 00:06:04;;;;;;;23.87;9.93;;;1.20;88.10;;;;;;5065833;28;20057;-81
2023/12/03 00:08:31;;;;;;;18.23;8.65;;;1.20;88.10;;;;;;5065025;28;20495;-81
2023/12/03 00:10:59;;;;;;;21.92;8.75;;;1.20;88.10;;;;;;5044391;28;20053;-81
2023/12/03 00:13:26;;;;;;;22.63;8.35;;;1.20;88.10;;;;;;5031783;28;20064;-81
2023/12/03 00:15:53;;;;;;;20.35;8.30;;;1.20;88.20;;;;;;5046086;28;20057;-81
2023/12/03 00:18:19;;;;;;;19.70;8.03;;;1.20;88.20;;;;;;5067237;28;20517;-81
2023/12/03 00:20:46;;;;;;;21.67;8.45;;;1.20;88.10;;;;;;5082917;28;20137;-80
2023/12/03 00:23:13;;;;;;;17.50;8.35;;;1.20;88.10;;;;;;5048309;28;20045;-80
2023/12/03 00:25:40;;;;;;;22.70;8.98;;;1.20;88.20;;;;;;5066881;28;20052;-81
2023/12/03 00:28:08;;;;;;;21.80;8.65;;;1.20;88.20;;;;;;5064252;28;20049;-80
2023/12/03 00:30:35;;;;;;;16.83;7.73;;;1.20;88.20;;;;;;5051570;28;20704;-81
2023/12/03 00:33:02;;;;;;;17.90;7.70;;;1.20;88.20;;;;;;5051625;28;20053;-81
2023/12/03 00:35:29;;;;;;;20.17;8.38;;;1.20;88.20;;;;;;5051585;28;20991;-81
2023/12/03 00:37:56;;;;;;;19.75;8.32;;;1.20;88.20;;;;;;5051623;28;20483;-81
2023/12/03 00:40:23;;;;;;;20.88;9.38;;;1.20;88.30;;;;;;5070068;28;20084;-81
2023/12/03 00:42:50;;;;;;;20.00;9.00;;;1.20;88.20;;;;;;5069404;28;20049;-81
2023/12/03 00:45:18;;;;;;;16.60;7.07;;;1.20;88.30;;;;;;5050413;28;20081;-81
2023/12/03 00:47:45;;;;;;;21.10;9.00;;;1.20;88.30;;;;;;5067412;28;20053;-81
2023/12/03 00:50:12;;;;;;;19.02;8.48;;;1.20;88.30;;;;;;5049894;28;20520;-81
2023/12/03 00:52:39;;;;;;;15.85;7.25;;;1.20;88.30;;;;;;5068028;28;20053;-81
2023/12/03 00:55:06;;;;;;;17.77;7.97;;;1.10;88.30;;;;;;5067955;28;20077;-81
2023/12/03 00:57:34;;;;;;;17.40;7.55;;;1.10;88.30;;;;;;5049976;28;20106;-81
2023/12/03 01:00:01;;;;;;;16.17;7.13;;;1.10;88.30;;;;;;5053584;28;20574;-81
2023/12/03 01:02:29;;;;;;;17.05;7.63;;;1.10;88.30;;;;;;5051515;28;20045;-81
2023/12/03 01:04:56;;;;;;;16.83;6.55;;;1.10;88.30;;;;;;5067826;28;20052;-81
2023/12/03 01:07:23;;;;;;;17.17;6.73;;;1.10;88.30;;;;;;5051606;28;20049;-80
2023/12/03 01:09:50;;;;;;;17.77;7.22;;;1.10;88.20;;;;;;5069569;28;20052;-81
2023/12/03 01:12:17;;;;;;;11.43;4.15;;;1.10;88.30;;;;;;5069685;28;20534;-81
2023/12/03 01:14:44;;;;;;;18.58;8.38;;;1.10;88.30;;;;;;5069486;28;20057;-81
2023/12/03 01:17:11;;;;;;;18.88;8.13;;;1.10;88.20;;;;;;5051320;28;20059;-81
2023/12/03 01:19:39;;;;;;;20.83;9.77;;;1.10;88.20;;;;;;5068671;28;20048;-81
2023/12/03 01:22:06;;;;;;;19.80;8.00;;;1.10;88.20;;;;;;5068452;28;20803;-81
2023/12/03 01:24:34;;;;;;;18.30;7.45;;;1.10;88.20;;;;;;5051588;28;20052;-81
2023/12/03 01:26:59;;;;;;;20.02;8.18;;;1.10;88.10;;;;;;5051444;28;20051;-81
2023/12/03 01:29:26;;;;;;;18.25;7.40;;;1.00;88.20;;;;;;5050956;28;20052;-81
2023/12/03 01:31:53;;;;;;;14.43;6.53;;;1.00;88.30;;;;;;5057734;28;20515;-81
2023/12/03 01:34:20;;;;;;;16.73;6.78;;;1.00;88.40;;;;;;5050969;28;20054;-81
2023/12/03 01:36:49;;;;;;;17.55;7.75;;;1.00;88.70;;;;;;5051486;28;20049;-80
2023/12/03 01:39:16;;;;;;;18.85;7.85;;;1.00;88.70;;;;;;5063593;28;20566;-81
2023/12/03 01:41:42;;;;;;;20.40;8.37;;;1.00;88.60;;;;;;5048066;28;20061;-81
2023/12/03 01:44:10;;;;;;;20.95;8.48;;;1.00;88.60;;;;;;5067606;28;20296;-81
2023/12/03 01:46:37;;;;;;;21.30;9.10;;;1.00;88.50;;;;;;5050694;28;20514;-81
2023/12/03 01:49:03;;;;;;;19.65;7.90;;;1.00;88.50;;;;;;5051201;28;20435;-81
2023/12/03 01:51:30;;;;;;;19.35;8.10;;;1.00;88.50;;;;;;5068762;28;20134;-81
2023/12/03 01:53:59;;;;;;;18.47;8.23;;;1.00;88.50;;;;;;5050668;28;20508;-81
2023/12/03 01:56:26;;;;;;;20.60;8.70;;;1.00;88.50;;;;;;5068110;28;20260;-81
2023/12/03 01:58:54;;;;;;;19.55;8.38;;;1.10;88.50;;;;;;5044137;28;20063;-81
2023/12/03 02:01:21;;;;;;;23.75;9.45;;;1.10;88.60;;;;;;5067675;28;20565;-80
2023/12/03 02:03:48;;;;;;;22.08;10.50;;;1.10;88.60;;;;;;5067339;28;20053;-81
2023/12/03 02:06:15;;;;;;;27.13;11.77;;;1.10;88.50;;;;;;5063857;28;20056;-81
2023/12/03 02:08:42;;;;;;;24.08;10.60;;;1.20;88.50;;;;;;5068797;28;20737;-81
2023/12/03 02:11:10;;;;;;;28.50;11.65;;;1.20;88.50;;;;;;5050377;28;20085;-81
2023/12/03 02:13:39;;;;;;;29.20;11.65;;;1.20;88.40;;;;;;5068970;28;20067;-81
2023/12/03 02:16:07;;;;;;;35.13;11.27;;;1.20;88.40;;;;;;5068118;28;20056;-81
2023/12/03 02:18:34;;;;;;;39.83;12.13;;;1.20;88.40;;;;;;5067430;28;20461;-81
2023/12/03 02:21:01;;;;;;;26.48;10.20;;;1.20;88.50;;;;;;5049787;28;20256;-81
2023/12/03 02:23:30;;;;;;;28.70;10.02;;;1.20;88.50;;;;;;5070099;28;20140;-81
2023/12/03 02:25:57;;;;;;;51.35;12.20;;;1.20;88.60;;;;;;5061098;28;20053;-81
2023/12/03 02:28:24;;;;;;;26.10;9.35;;;1.20;88.60;;;;;;5068453;28;20057;-81
2023/12/03 02:30:51;;;;;;;21.40;8.47;;;1.20;88.70;;;;;;5049988;28;20498;-81
2023/12/03 02:33:18;;;;;;;27.70;10.85;;;1.20;88.70;;;;;;5072425;28;20272;-81
2023/12/03 02:35:45;;;;;;;31.13;13.60;;;1.20;88.70;;;;;;5083641;28;20052;-81
2023/12/03 02:38:12;;;;;;;25.40;11.40;;;1.10;88.90;;;;;;5067056;28;20132;-81
2023/12/03 02:40:40;;;;;;;28.27;11.13;;;1.10;88.90;;;;;;5068264;28;20051;-81
2023/12/03 02:43:07;;;;;;;25.03;10.47;;;1.10;89.00;;;;;;5067862;28;20136;-81
2023/12/03 02:45:34;;;;;;;27.20;11.45;;;1.10;89.00;;;;;;5068134;28;20247;-81
2023/12/03 02:48:02;;;;;;;27.58;11.75;;;1.10;89.10;;;;;;5049895;28;20479;-80
2023/12/03 02:50:29;;;;;;;29.67;12.48;;;1.10;89.10;;;;;;5065891;28;20517;-81
2023/12/03 02:52:56;;;;;;;28.27;12.95;;;1.10;89.20;;;;;;5050521;28;20548;-81
2023/12/03 02:55:24;;;;;;;26.87;12.33;;;1.20;89.40;;;;;;5068673;28;20060;-81
2023/12/03 02:57:53;;;;;;;27.13;12.55;;;1.20;89.50;;;;;;5050975;28;21273;-81
2023/12/03 03:00:21;;;;;;;25.02;11.35;;;1.20;89.50;;;;;;5050808;28;20057;-81
2023/12/03 03:02:48;;;;;;;27.65;11.63;;;1.20;89.50;;;;;;5068558;28;20049;-81
2023/12/03 03:05:15;;;;;;;23.10;9.45;;;1.20;89.50;;;;;;5050523;28;20063;-81
2023/12/03 03:07:42;;;;;;;23.73;10.33;;;1.20;89.50;;;;;;5050604;28;20049;-80
2023/12/03 03:10:09;;;;;;;28.90;11.68;;;1.20;89.60;;;;;;5050200;28;20261;-80
2023/12/03 03:12:37;;;;;;;28.15;12.07;;;1.20;89.50;;;;;;5068523;28;20076;-81
2023/12/03 03:15:06;;;;;;;27.83;11.40;;;1.20;89.50;;;;;;5068469;28;20052;-81
2023/12/03 03:17:33;;;;;;;23.67;10.02;;;1.20;89.60;;;;;;5050471;28;20130;-81
2023/12/03 03:20:00;;;;;;;26.40;11.63;;;1.30;89.70;;;;;;5068474;28;20053;-81
2023/12/03 03:22:27;;;;;;;27.45;12.43;;;1.30;89.70;;;;;;5046771;28;20277;-81
2023/12/03 03:24:54;;;;;;;25.80;9.90;;;1.30;89.70;;;;;;5046878;28;20052;-80
2023/12/03 03:27:21;;;;;;;28.17;11.60;;;1.30;89.80;;;;;;5063906;28;20060;-80
2023/12/03 03:29:49;;;;;;;28.27;11.55;;;1.30;89.80;;;;;;5013954;28;20045;-81
2023/12/03 03:32:17;;;;;;;32.60;12.50;;;1.30;89.80;;;;;;5048056;28;20133;-81
2023/12/03 03:34:44;;;;;;;37.45;12.52;;;1.40;89.90;;;;;;5030281;28;20754;-81
2023/12/03 03:37:11;;;;;;;30.63;12.27;;;1.40;90.00;;;;;;5046795;28;20149;-80
2023/12/03 03:39:38;;;;;;;39.70;13.60;;;1.40;90.10;;;;;;5046913;28;20056;-81
2023/12/03 03:42:06;;;;;;;34.60;12.07;;;1.40;90.10;;;;;;5046477;28;20049;-81
2023/12/03 03:44:32;;;;;;;46.37;13.57;;;1.40;90.10;;;;;;5047891;28;20053;-81
2023/12/03 03:47:00;;;;;;;34.33;13.02;;;1.40;90.20;;;;;;5046989;28;20288;-81
2023/12/03 03:49:28;;;;;;;42.97;12.50;;;1.40;90.20;;;;;;5030047;28;20511;-81
2023/12/03 03:51:55;;;;;;;32.53;12.05;;;1.40;90.20;;;;;;5047870;28;20049;-81
2023/12/03 03:54:22;;;;;;;30.38;11.85;;;1.40;90.30;;;;;;5048134;28;20132;-81
2023/12/03 03:56:49;;;;;;;30.37;11.57;;;1.40;90.30;;;;;;5048254;28;20053;-81
2023/12/03 03:59:17;;;;;;;38.40;11.13;;;1.40;90.30;;;;;;5046542;28;20284;-81
2023/12/03 04:01:44;;;;;;;32.33;9.80;;;1.40;90.30;;;;;;5046466;28;20505;-81
2023/12/03 04:04:11;;;;;;;38.65;12.10;;;1.40;90.30;;;;;;5063962;28;20053;-81
2023/12/03 04:06:40;;;;;;;28.95;10.45;;;1.40;90.40;;;;;;5050358;28;20118;-81
2023/12/03 04:09:07;;;;;;;27.90;10.70;;;1.40;90.40;;;;;;5051441;28;20179;-81
2023/12/03 04:11:39;;;;;;;33.17;10.10;;;1.50;90.40;;;;;;5051229;28;20356;-81
2023/12/03 04:14:08;;;;;;;41.35;11.30;;;1.40;90.40;;;;;;5049771;28;20081;-81
2023/12/03 04:16:35;;;;;;;43.47;11.77;;;1.40;90.40;;;;;;5033392;28;20057;-81
2023/12/03 04:19:02;;;;;;;45.13;11.73;;;1.50;90.40;;;;;;5050001;28;20133;-81
2023/12/03 04:21:29;;;;;;;32.67;10.67;;;1.50;90.40;;;;;;5051151;28;20060;-81
2023/12/03 04:23:58;;;;;;;36.28;11.93;;;1.50;90.40;;;;;;5066485;28;20768;-81
2023/12/03 04:26:25;;;;;;;40.05;12.02;;;1.50;90.40;;;;;;5051188;28;20053;-81
2023/12/03 04:28:53;;;;;;;42.03;11.73;;;1.50;90.40;;;;;;5051781;28;20059;-81
2023/12/03 04:31:21;;;;;;;28.58;10.40;;;1.50;90.40;;;;;;5049678;28;20077;-80
2023/12/03 04:33:49;;;;;;;31.40;10.40;;;1.50;90.40;;;;;;5050910;28;20054;-81
2023/12/03 04:36:17;;;;;;;42.55;12.13;;;1.50;90.30;;;;;;5049906;28;20265;-81
2023/12/03 04:38:44;;;;;;;31.08;10.07;;;1.50;90.40;;;;;;5032955;28;20052;-81
2023/12/03 04:41:13;;;;;;;47.10;11.23;;;1.50;90.40;;;;;;5049704;28;20045;-81
2023/12/03 04:43:40;;;;;;;32.72;11.13;;;1.50;90.40;;;;;;5049181;28;20045;-81
2023/12/03 04:46:07;;;;;;;41.83;11.73;;;1.50;90.40;;;;;;5050737;28;20490;-81
2023/12/03 04:48:36;;;;;;;35.05;10.63;;;1.50;90.40;;;;;;5032534;28;20249;-81
2023/12/03 04:51:03;;;;;;;31.10;10.93;;;1.50;90.40;;;;;;5049079;28;20053;-81
2023/12/03 04:53:30;;;;;;;36.97;10.93;;;1.50;90.40;;;;;;5049129;28;20054;-80
2023/12/03 04:55:57;;;;;;;34.15;10.32;;;1.50;90.30;;;;;;5032942;28;20054;-81
2023/12/03 04:58:26;;;;;;;28.67;10.87;;;1.50;90.30;;;;;;5066179;28;20561;-82
2023/12/03 05:00:54;;;;;;;37.25;10.10;;;1.50;90.30;;;;;;5050558;28;20299;-81
2023/12/03 05:03:21;;;;;;;30.77;10.40;;;1.50;90.30;;;;;;5048904;28;20049;-81
2023/12/03 05:05:48;;;;;;;30.40;10.02;;;1.50;90.30;;;;;;5050524;28;20058;-81
2023/12/03 05:08:15;;;;;;;33.22;10.07;;;1.50;90.40;;;;;;5032111;28;20164;-81
2023/12/03 05:10:42;;;;;;;30.87;9.37;;;1.50;90.40;;;;;;5048282;28;20063;-81
2023/12/03 05:13:09;;;;;;;38.35;9.80;;;1.50;90.40;;;;;;5048840;28;20344;-81
2023/12/03 05:15:38;;;;;;;30.83;8.90;;;1.50;90.40;;;;;;5048744;28;20796;-80
2023/12/03 05:18:05;;;;;;;38.97;10.00;;;1.50;90.40;;;;;;5048457;28;20057;-81
2023/12/03 05:20:33;;;;;;;23.60;8.13;;;1.50;90.40;;;;;;5047408;28;20041;-80
2023/12/03 05:23:00;;;;;;;33.53;8.83;;;1.50;90.40;;;;;;5030845;28;20465;-80
2023/12/03 05:25:27;;;;;;;26.80;8.88;;;1.50;90.40;;;;;;5048995;28;20259;-81
2023/12/03 05:27:54;;;;;;;32.35;9.48;;;1.50;90.30;;;;;;5048913;28;20509;-81
2023/12/03 05:30:21;;;;;;;26.73;8.60;;;1.50;90.30;;;;;;5032011;28;20049;-81
2023/12/03 05:32:49;;;;;;;27.83;8.57;;;1.50;90.30;;;;;;5032119;28;20045;-81
2023/12/03 05:35:17;;;;;;;27.17;8.20;;;1.50;90.30;;;;;;5050415;28;20050;-81
2023/12/03 05:37:44;;;;;;;26.50;8.45;;;1.50;90.30;;;;;;5032200;28;20750;-81
2023/12/03 05:40:11;;;;;;;27.83;9.73;;;1.50;90.30;;;;;;5049777;28;20533;-80
2023/12/03 05:42:38;;;;;;;36.30;9.70;;;1.50;90.30;;;;;;5031838;28;20131;-80
2023/12/03 05:45:07;;;;;;;32.85;10.50;;;1.60;90.30;;;;;;5048795;28;20055;-81
2023/12/03 05:47:35;;;;;;;29.20;9.73;;;1.60;90.40;;;;;;5050090;28;20153;-81
2023/12/03 05:50:04;;;;;;;30.25;9.32;;;1.60;90.40;;;;;;5032138;28;20264;-81
2023/12/03 05:52:31;;;;;;;31.88;10.05;;;1.60;90.40;;;;;;5048960;28;20049;-81
2023/12/03 05:54:58;;;;;;;31.85;9.45;;;1.60;90.50;;;;;;5048335;28;20045;-80
2023/12/03 05:57:25;;;;;;;30.75;9.30;;;1.60;90.50;;;;;;5031995;28;20129;-81
2023/12/03 05:59:53;;;;;;;31.37;9.27;;;1.60;90.50;;;;;;5062557;28;20041;-81
2023/12/03 06:02:20;;;;;;;34.17;10.10;;;1.60;90.50;;;;;;5069625;28;20318;-81
2023/12/03 06:04:47;;;;;;;32.38;9.65;;;1.60;90.50;;;;;;5068356;28;20080;-81
2023/12/03 06:07:16;;;;;;;26.77;8.70;;;1.70;90.50;;;;;;5051832;28;20570;-81
2023/12/03 06:09:43;;;;;;;29.23;9.73;;;1.70;90.50;;;;;;5069231;28;20067;-81
2023/12/03 06:12:10;;;;;;;32.93;10.23;;;1.70;90.50;;;;;;5069740;28;20053;-81
2023/12/03 06:14:37;;;;;;;29.50;9.60;;;1.70;90.50;;;;;;5068663;28;20340;-80
2023/12/03 06:17:04;;;;;;;29.08;9.70;;;1.70;90.40;;;;;;5069320;28;20053;-81
2023/12/03 06:19:31;;;;;;;34.63;10.82;;;1.70;90.40;;;;;;5051044;28;20045;-81
2023/12/03 06:21:58;;;;;;;30.45;8.77;;;1.70;90.40;;;;;;5067350;28;20049;-81
2023/12/03 06:24:27;;;;;;;32.23;9.63;;;1.70;90.40;;;;;;5069498;28;20508;-81
2023/12/03 06:26:55;;;;;;;32.97;11.43;;;1.70;90.40;;;;;;5050583;28;20260;-81
2023/12/03 06:29:22;;;;;;;32.92;10.65;;;1.70;90.50;;;;;;5051084;28;20048;-81
2023/12/03 06:31:49;;;;;;;31.13;9.73;;;1.70;90.40;;;;;;5050990;28;20143;-81
2023/12/03 06:34:41;;;;;;;37.90;11.25;;;1.70;90.40;;;;;;5071828;28;20053;-81
2023/12/03 06:37:08;;;;;;;33.80;10.97;;;1.70;90.40;;;;;;5069156;28;20052;-81
2023/12/03 06:39:37;;;;;;;35.03;11.10;;;1.70;90.30;;;;;;5069288;28;20771;-80
2023/12/03 06:42:04;;;;;;;40.97;12.00;;;1.70;90.40;;;;;;5069184;28;20802;-81
2023/12/03 06:44:31;;;;;;;36.05;10.32;;;1.70;90.50;;;;;;5069065;28;20095;-80
2023/12/03 06:46:58;;;;;;;32.83;10.65;;;1.80;90.40;;;;;;5067340;28;20055;-81
2023/12/03 06:49:25;;;;;;;31.53;9.83;;;1.80;90.40;;;;;;5069025;28;20053;-80
2023/12/03 06:51:52;;;;;;;37.78;11.00;;;1.80;90.50;;;;;;5050757;28;20258;-81
2023/12/03 06:54:19;;;;;;;30.27;10.02;;;1.80;90.50;;;;;;5067730;28;20053;-81
2023/12/03 06:56:47;;;;;;;34.50;10.63;;;1.80;90.50;;;;;;5069091;28;20053;-81
2023/12/03 06:59:15;;;;;;;31.05;10.98;;;1.80;90.50;;;;;;5067749;28;20056;-80
2023/12/03 07:01:42;;;;;;;33.00;10.23;;;1.80;90.70;;;;;;5068576;28;20124;-81
2023/12/03 07:04:09;;;;;;;32.05;10.57;;;1.90;90.60;;;;;;5050507;28;20976;-81
2023/12/03 07:06:36;;;;;;;32.72;10.57;;;1.90;90.60;;;;;;5050309;28;20541;-81
2023/12/03 07:09:03;;;;;;;36.20;11.32;;;1.90;90.50;;;;;;5050501;28;20048;-81
2023/12/03 07:11:30;;;;;;;32.55;10.68;;;1.90;90.60;;;;;;5068776;28;20059;-81
2023/12/03 07:13:58;;;;;;;35.10;10.93;;;1.90;90.60;;;;;;5068517;28;20049;-80
2023/12/03 07:16:25;;;;;;;38.15;12.73;;;1.90;90.70;;;;;;5050566;28;20249;-81
2023/12/03 07:18:52;;;;;;;39.55;11.80;;;1.90;90.60;;;;;;5050004;28;20045;-81
2023/12/03 07:21:19;;;;;;;32.83;10.35;;;1.90;90.60;;;;;;5067892;28;20056;-81
2023/12/03 07:23:46;;;;;;;34.45;10.93;;;1.90;90.70;;;;;;5067576;28;20145;-80
2023/12/03 07:26:15;;;;;;;38.13;11.43;;;1.90;90.60;;;;;;5050369;28;20055;-81
2023/12/03 07:28:42;;;;;;;37.80;12.30;;;1.90;90.60;;;;;;5048750;28;20283;-81
2023/12/03 07:31:11;;;;;;;33.78;10.75;;;1.90;90.60;;;;;;5066556;28;20079;-81
2023/12/03 07:33:38;;;;;;;35.75;11.13;;;1.90;90.70;;;;;;5048703;28;20831;-81
2023/12/03 07:36:06;;;;;;;33.85;10.50;;;1.90;90.70;;;;;;5050095;28;20628;-81
2023/12/03 07:38:32;;;;;;;32.37;9.47;;;1.90;90.70;;;;;;5067314;28;20128;-81
2023/12/03 07:41:00;;;;;;;30.23;9.95;;;1.90;90.80;;;;;;5070496;28;20902;-81
2023/12/03 07:43:27;;;;;;;33.85;10.48;;;1.90;90.80;;;;;;5052089;28;20055;-82
2023/12/03 07:45:54;;;;;;;30.92;9.68;;;1.90;90.70;;;;;;5052140;28;20052;-81
2023/12/03 07:48:23;;;;;;;33.90;9.95;;;1.90;90.80;;;;;;5051799;28;20041;-82
2023/12/03 07:50:50;;;;;;;32.17;10.40;;;2.00;90.70;;;;;;5069663;28;20833;-80
2023/12/03 07:53:17;;;;;;;29.08;9.35;;;2.00;90.80;;;;;;5052003;28;20753;-82
2023/12/03 07:55:44;;;;;;;30.17;9.57;;;2.00;90.70;;;;;;5053696;28;21034;-81
2023/12/03 07:58:11;;;;;;;31.10;9.90;;;2.00;90.70;;;;;;5053182;28;20052;-81
2023/12/03 08:00:39;;;;;;;25.27;7.75;;;2.00;90.60;;;;;;5053384;28;20411;-81
2023/12/03 08:03:06;;;;;;;29.43;9.43;;;1.90;90.60;;;;;;5052809;28;20083;-83
2023/12/03 08:05:35;;;;;;;28.70;9.18;;;2.00;90.60;;;;;;5052978;28;20256;-81
2023/12/03 08:08:02;;;;;;;31.33;9.32;;;2.00;90.50;;;;;;5071038;28;20543;-82
2023/12/03 08:10:29;;;;;;;28.40;9.00;;;2.00;90.50;;;;;;5071270;28;20494;-81
2023/12/03 08:12:56;;;;;;;25.80;7.97;;;2.00;90.50;;;;;;5052095;28;20087;-82
2023/12/03 08:15:23;;;;;;;32.10;8.87;;;2.00;90.50;;;;;;5050794;28;20095;-82
2023/12/03 08:17:50;;;;;;;28.02;9.23;;;2.00;90.50;;;;;;5051261;28;20295;-83
2023/12/03 08:20:17;;;;;;;27.88;9.15;;;2.00;90.50;;;;;;5052685;28;20053;-81
2023/12/03 08:22:45;;;;;;;31.10;9.60;;;2.00;90.50;;;;;;5055069;28;20041;-83
2023/12/03 08:25:13;;;;;;;28.60;9.02;;;2.00;90.50;;;;;;5067597;28;20155;-81
2023/12/03 08:27:39;;;;;;;31.23;9.93;;;2.00;90.50;;;;;;5068606;28;20053;-81
2023/12/03 08:30:08;;;;;;;29.98;9.32;;;2.00;90.40;;;;;;5068376;28;20787;-81
2023/12/03 08:32:34;;;;;;;35.92;10.75;;;2.00;90.40;;;;;;5051342;28;20084;-84
2023/12/03 08:35:02;;;;;;;28.90;9.18;;;2.10;90.50;;;;;;5050767;28;20156;-84
2023/12/03 08:37:29;;;;;;;30.73;10.30;;;2.10;90.50;;;;;;5069701;28;20143;-80
2023/12/03 08:39:57;;;;;;;30.57;9.33;;;2.10;90.50;;;;;;5071102;28;20419;-79
2023/12/03 08:42:24;;;;;;;33.38;11.13;;;2.10;90.50;;;;;;5051501;28;20621;-82
2023/12/03 08:44:51;;;;;;;31.75;11.20;;;2.20;90.50;;;;;;5068608;28;20511;-82
2023/12/03 08:47:20;;;;;;;32.88;11.52;;;2.10;90.40;;;;;;5052327;28;20052;-81
2023/12/03 08:49:47;;;;;;;37.70;11.82;;;2.20;90.40;;;;;;5068157;28;20103;-83
2023/12/03 08:52:15;;;;;;;31.90;10.80;;;2.20;90.30;;;;;;5069669;28;20049;-80
2023/12/03 08:54:42;;;;;;;36.47;10.82;;;2.20;90.20;;;;;;5035265;28;21320;-82
2023/12/03 08:57:10;;;;;;;32.70;11.65;;;2.20;90.30;;;;;;5052378;28;20111;-83
2023/12/03 08:59:38;;;;;;;32.22;10.98;;;2.20;90.20;;;;;;5069132;28;20057;-82
2023/12/03 09:02:06;;;;;;;36.83;12.38;;;2.20;90.20;;;;;;5050419;28;20053;-81
2023/12/03 09:04:33;;;;;;;33.33;12.27;;;2.20;90.20;;;;;;5055522;28;20084;-81
2023/12/03 09:07:00;;;;;;;34.72;12.27;;;2.20;90.10;;;;;;5050770;28;20284;-82
2023/12/03 09:09:27;;;;;;;36.00;12.98;;;2.20;90.10;;;;;;5034295;28;20056;-82
2023/12/03 09:11:54;;;;;;;32.47;11.48;;;2.20;90.10;;;;;;5051752;28;20053;-81
2023/12/03 09:14:25;;;;;;;32.17;13.32;;;2.30;90.10;;;;;;5051838;28;20057;-83
2023/12/03 09:16:52;;;;;;;34.63;12.97;;;2.30;90.00;;;;;;5051966;28;20045;-83
2023/12/03 09:19:19;;;;;;;30.52;12.25;;;2.30;90.00;;;;;;5051686;28;20252;-82
2023/12/03 09:21:46;;;;;;;41.08;16.48;;;2.30;89.90;;;;;;5070473;28;20049;-83
2023/12/03 09:24:16;;;;;;;33.40;13.93;;;2.30;89.80;;;;;;5085349;28;20216;-83
2023/12/03 09:26:45;;;;;;;39.30;15.82;;;2.30;89.60;;;;;;5068722;28;20092;-82
2023/12/03 09:29:12;;;;;;;30.20;12.47;;;2.30;89.30;;;;;;5069170;28;20127;-83
2023/12/03 09:31:41;;;;;;;34.30;13.45;;;2.30;89.10;;;;;;5051220;28;20373;-83
2023/12/03 09:34:08;;;;;;;34.70;13.07;;;2.30;89.10;;;;;;5068114;28;20053;-83
2023/12/03 09:36:36;;;;;;;34.13;13.63;;;2.30;89.10;;;;;;5049913;28;20049;-81
2023/12/03 09:39:04;;;;;;;34.13;13.65;;;2.30;89.00;;;;;;5049611;28;20172;-82
2023/12/03 09:41:33;;;;;;;34.83;14.33;;;2.30;88.90;;;;;;5068312;28;20054;-82
2023/12/03 09:44:04;;;;;;;33.67;12.85;;;2.30;88.80;;;;;;5049568;28;20256;-81
2023/12/03 09:46:32;;;;;;;34.95;14.55;;;2.30;88.80;;;;;;5068546;28;20060;-82
2023/12/03 09:49:01;;;;;;;34.72;14.45;;;2.30;88.90;;;;;;5069845;28;20056;-83
2023/12/03 09:51:29;;;;;;;36.67;14.73;;;2.30;88.70;;;;;;5069716;28;20056;-83
2023/12/03 09:54:00;;;;;;;34.30;13.83;;;2.30;88.70;;;;;;5069852;28;20541;-81
2023/12/03 09:56:30;;;;;;;34.40;13.80;;;2.30;88.60;;;;;;5051637;28;20283;-82
2023/12/03 09:58:58;;;;;;;29.75;13.20;;;2.30;88.40;;;;;;5069878;28;20425;-82
2023/12/03 10:01:27;;;;;;;37.42;14.63;;;2.30;88.40;;;;;;5069093;28;20139;-82
2023/12/03 10:03:55;;;;;;;33.70;14.60;;;2.30;88.20;;;;;;5068457;28;20063;-82
2023/12/03 10:06:25;;;;;;;32.30;14.67;;;2.30;88.20;;;;;;5069896;28;20061;-81
2023/12/03 10:08:53;;;;;;;32.75;13.40;;;2.30;88.20;;;;;;5068166;28;20347;-81
2023/12/03 10:11:25;;;;;;;33.55;15.35;;;2.30;88.00;;;;;;5051636;28;20049;-82
2023/12/03 10:13:56;;;;;;;31.20;15.13;;;2.30;87.90;;;;;;5067408;28;20053;-82
2023/12/03 10:16:26;;;;;;;35.50;14.60;;;2.30;87.80;;;;;;5035306;28;20147;-86
2023/12/03 10:18:54;;;;;;;31.63;14.93;;;2.30;87.70;;;;;;5068256;28;20275;-85
2023/12/03 10:21:21;;;;;;;34.15;14.82;;;2.40;87.50;;;;;;5084692;28;20259;-85
2023/12/03 10:23:59;;;;;;;32.60;15.75;;;2.40;87.40;;;;;;5069288;28;20487;-85
2023/12/03 10:26:26;;;;;;;31.45;13.70;;;2.40;87.30;;;;;;5068148;28;20055;-85
2023/12/03 10:28:53;;;;;;;28.05;12.23;;;2.40;87.20;;;;;;5066566;28;20939;-85
2023/12/03 10:31:20;;;;;;;30.23;13.40;;;2.40;87.00;;;;;;5066564;28;20049;-86
2023/12/03 10:33:47;;;;;;;30.60;12.88;;;2.40;86.80;;;;;;5066573;28;20359;-84
2023/12/03 10:36:15;;;;;;;34.97;15.05;;;2.50;86.70;;;;;;5066619;28;20089;-79
2023/12/03 10:38:43;;;;;;;28.17;12.10;;;2.50;86.60;;;;;;5068184;28;20096;-83
2023/12/03 10:41:16;;;;;;;28.52;13.07;;;2.50;86.70;;;;;;5078448;28;20130;-84
2023/12/03 10:43:44;;;;;;;29.87;12.90;;;2.50;86.60;;;;;;5047722;28;20052;-85
2023/12/03 10:46:12;;;;;;;30.52;13.18;;;2.50;86.70;;;;;;5067538;28;20283;-84
2023/12/03 10:48:39;;;;;;;30.95;13.27;;;2.50;86.70;;;;;;5049349;28;20503;-82
2023/12/03 10:51:08;;;;;;;30.23;12.48;;;2.60;86.40;;;;;;5054095;28;20045;-84
2023/12/03 10:53:37;;;;;;;22.13;8.70;;;2.60;86.20;;;;;;5031778;28;20904;-83
2023/12/03 10:56:06;;;;;;;28.13;12.67;;;2.60;86.30;;;;;;5064487;28;20055;-84
2023/12/03 10:58:37;;;;;;;29.23;15.20;;;2.60;86.20;;;;;;5049337;28;20279;-84
2023/12/03 11:01:09;;;;;;;27.52;12.90;;;2.60;86.20;;;;;;5066840;28;20951;-83
2023/12/03 11:04:12;;;;;;;28.80;13.07;;;2.60;86.00;;;;;;5067048;28;20052;-83
2023/12/03 11:06:41;;;;;;;29.42;13.05;;;2.60;85.90;;;;;;5066200;28;20129;-84
2023/12/03 11:09:08;;;;;;;29.53;13.63;;;2.60;85.80;;;;;;5048383;28;20053;-84
2023/12/03 11:11:38;;;;;;;26.08;12.27;;;2.70;85.60;;;;;;5048559;28;20700;-84
2023/12/03 11:14:06;;;;;;;28.48;11.57;;;2.70;85.10;;;;;;5049209;28;20436;-83
2023/12/03 11:16:44;;;;;;;26.35;12.68;;;2.60;84.70;;;;;;5065709;28;20144;-84
2023/12/03 11:19:16;;;;;;;26.13;10.45;;;2.50;84.70;;;;;;5049368;28;20057;-85
2023/12/03 11:21:52;;;;;;;27.73;12.27;;;2.50;84.80;;;;;;5056655;28;20045;-85
2023/12/03 11:24:46;;;;;;;25.38;11.52;;;2.50;84.80;;;;;;5050721;28;20315;-85
2023/12/03 11:27:13;;;;;;;28.00;13.00;;;2.50;84.20;;;;;;5068675;28;20506;-84
2023/12/03 11:29:52;;;;;;;26.33;10.70;;;2.50;84.00;;;;;;5067001;28;20053;-85
2023/12/03 11:32:19;;;;;;;28.48;11.73;;;2.50;84.00;;;;;;5050145;28;20061;-85
2023/12/03 11:34:56;;;;;;;31.60;14.10;;;2.40;84.20;;;;;;5050416;28;20126;-84
2023/12/03 11:37:26;;;;;;;33.28;13.32;;;2.50;84.30;;;;;;5067013;28;20276;-86
2023/12/03 11:39:56;;;;;;;29.17;12.07;;;2.40;84.30;;;;;;5068425;28;20045;-85
2023/12/03 11:42:25;;;;;;;26.52;11.70;;;2.40;84.50;;;;;;5034008;28;20521;-87
2023/12/03 11:45:16;;;;;;;25.00;10.18;;;2.40;84.60;;;;;;5050521;28;20057;-85
2023/12/03 11:47:45;;;;;;;25.73;10.40;;;2.40;84.70;;;;;;5067151;28;20057;-84
2023/12/03 11:50:15;;;;;;;27.88;10.85;;;2.40;84.70;;;;;;5064776;28;20252;-84
2023/12/03 11:52:43;;;;;;;29.63;12.57;;;2.30;84.70;;;;;;5031240;28;20868;-85
2023/12/03 11:55:18;;;;;;;27.83;11.98;;;2.30;84.80;;;;;;5065560;28;20049;-84
2023/12/03 11:57:46;;;;;;;29.70;12.77;;;2.30;84.90;;;;;;5063086;28;20095;-84
2023/12/03 12:00:19;;;;;;;30.83;13.27;;;2.20;85.00;;;;;;5066237;28;20049;-85
2023/12/03 12:02:46;;;;;;;35.00;14.25;;;2.30;85.20;;;;;;5065972;28;20733;-85
2023/12/03 12:05:14;;;;;;;36.55;15.80;;;2.20;85.20;;;;;;5084245;28;20053;-85
2023/12/03 12:07:46;;;;;;;39.10;15.77;;;2.30;85.30;;;;;;5085052;28;21049;-85
2023/12/03 12:10:13;;;;;;;38.70;15.48;;;2.30;85.00;;;;;;5050749;28;20056;-85
2023/12/03 12:12:40;;;;;;;38.27;14.97;;;2.30;84.90;;;;;;5066809;28;20211;-85
2023/12/03 12:15:08;;;;;;;36.92;13.43;;;2.30;85.00;;;;;;5050024;28;20390;-84
2023/12/03 12:17:37;;;;;;;37.17;15.43;;;2.30;85.00;;;;;;5067731;28;20597;-84
2023/12/03 12:20:05;;;;;;;34.97;14.77;;;2.30;85.20;;;;;;5066745;28;20156;-85
2023/12/03 12:22:32;;;;;;;36.90;15.57;;;2.30;85.30;;;;;;5066647;28;20045;-84
2023/12/03 12:24:59;;;;;;;36.00;14.30;;;2.30;85.40;;;;;;5064131;28;20050;-84
2023/12/03 12:27:26;;;;;;;34.78;14.90;;;2.30;85.50;;;;;;5067754;28;20761;-85
2023/12/03 12:29:54;;;;;;;37.38;14.70;;;2.40;85.50;;;;;;5070255;28;20045;-85
2023/12/03 12:32:21;;;;;;;33.40;14.25;;;2.40;85.60;;;;;;5053345;28;20136;-84
2023/12/03 12:34:49;;;;;;;32.78;13.43;;;2.50;85.70;;;;;;5053311;28;20123;-83
2023/12/03 12:37:36;;;;;;;32.80;14.10;;;2.50;85.80;;;;;;5052952;28;20049;-83
2023/12/03 12:40:08;;;;;;;34.45;13.90;;;2.50;85.80;;;;;;5061768;28;20340;-82
2023/12/03 12:42:42;;;;;;;34.45;14.52;;;2.70;85.70;;;;;;5071749;28;20052;-83
2023/12/03 12:45:27;;;;;;;28.95;12.55;;;2.70;85.50;;;;;;5050705;28;20081;-83